SBFL/FLN METAR and TAF weather

Enter ICAO airport designator
Station Type Date Time Source
SBFL METAR 2020/09/20 08:00 UTC NOAA

SBFL 200800Z 17014KT CAVOK 15/08 Q1019


Station Type Date Time Source
SBFL Decoded METAR 2020/09/20 08:00 UTC NOAA

Florianopolis Aeroporto , Brazil (SBFL) 27-40S 048-33W 5M
Sep 20, 2020 - 04:00 AM EDT / 2020.09.20 0800 UTC
Wind: from the S (170 degrees) at 16 MPH (14 KT):0
Visibility: greater than 7 mile(s):0
Temperature: 59 F (15 C)
Dew Point: 46 F (8 C)
Relative Humidity: 62%
Pressure (altimeter): 30.09 in. Hg (1019 hPa)
ob: SBFL 200800Z 17014KT CAVOK 15/08 Q1019
cycle: 8

Station Type Date Time Source
SBFL TAF 2020/09/20 06:53 UTC NOAA

TAF SBFL 200300Z 2006/2106 18014KT 9999 SCT040 TX16/2017Z TN14/2106Z PROB30 2009/2011 4000 BR BKN010 PROB30
TEMPO 2016/2018 8000 RA BKN020
BECMG 2021/2023 18008KT
RMK PDJ

Example: see airport list